Kayseri/Erkilet, Turkey
Current Conditions -  °F | °C
As of 4:20 PM on Wednesday 22 Oct 2014 (Local Time) from LTAU Reporting Station
Scattered Clouds Scattered Clouds  
Wind Chill: 72°   Ceiling: Unl
Heat Index: 72°   Visibility: 6mi
Dew Point: 28°   Wind: 0mph
Humidity: 20%   Direction: NA
Pressure: 30"   Gusts: NA
Location:  38.82°N, 35.45°E
Report Text: LTAU 221320Z 00000KT 9999 FEW040 SCT120 22/M02 Q1016 NOSIG
Loading
Personal Weather Stations






























Interactive Weather Map
Tropical Storm Tracking
New forecast layout! Learn more

10-Day Weather Forecast

Advertisements
Track Severe Weather on mobile